Historyczne dane pomiarowe

Dodano dane terminowe – wersja testowa.

Dane z okresu 1951-2019

Wersja bazy: 1.34 [2019-03-16, lista zmian], aktualizacja planowana na 2019-04-15

Dane meteo z obszaru Polski uzyskane na podstawie danych udostępnionych przez Instytut Meteorologii i Gospodarki Wodnej – Państwowy Instytut Badawczy.

 

Wybierz Datę:    

       

TemperaturaWilgotnośćWiatrCiśnienieOpadyŚniegCzas trwania zjawisk
 Stacja t tx tn tng RH VA  wxwx mslp ppp RRR   cm mm wxwxwxwxwxwxwx
1952-07-16 16.6 20.0 13.5 11.0 92.5- 7.3 2.7---- 5.5------------
1952-07-17 16.8 23.5 13.5 11.9 72.5- 3.7 1.7---- 0.0------------
1952-07-18 20.4 26.4 9.3 5.4 67.0- 2.0 2.0---- 1.1------------
1952-07-19 16.5 22.9 14.8 14.0 69.3- 7.0 4.0---- 0.4------------
1952-07-20 16.8 22.5 12.7 9.0 82.8- 6.3 4.0---- 0.8------------
1952-07-21 16.3 24.2 14.4 10.3 83.3- 4.0 2.7---- 0.0------------
1952-07-22 17.6 26.2 7.8 3.0 68.3- 0.3 0.7---- 0.0------------
1952-07-23 20.0 29.6 10.2 6.8 80.8- 4.7 1.7---- 7.2------------
1952-07-24 15.8 19.8 13.3 12.7 79.5- 6.3 1.3---- 0.0------------
1952-07-25 13.5 19.8 9.5 6.5 88.8- 7.0 1.3---- 0.2------------
1952-07-26 13.1 19.2 11.2 10.0 93.0- 5.0 1.3---- 0.0------------
1952-07-27 16.5 23.0 7.5 3.4 76.0- 1.7 1.7---- 0.0------------
1952-07-28 21.5 28.7 12.8 6.9 63.8- 0.3 3.3---- 0.0------------
1952-07-29 19.8 29.6 14.5 13.3 74.5- 7.3 4.7---- 2.5------------
1952-07-30 14.4 19.9 12.9 12.9 88.8- 5.0 1.7---- 0.0------------
1952-07-31 17.7 25.1 7.7 6.3 76.5- 2.7 1.0---- 0.0------------
1952-08-01 18.5 25.6 10.7 7.7 75.3- 1.7 2.0---- 0.0------------
1952-08-02 19.7 26.9 10.4 6.8 72.5- 0.7 1.7---- 0.0------------
1952-08-03 21.1 29.2 13.0 9.2 73.8- 0.0 2.7---- 0.0------------
1952-08-04 20.8 28.6 14.5 10.4 88.8- 6.3 2.0---- 0.0------------
1952-08-05 21.1 28.9 14.4 11.6 82.3- 3.3 1.3---- 0.0------------
1952-08-06 24.7 33.7 14.1 10.0 65.0- 1.0 1.0---- 3.4------------
1952-08-07 24.5 32.6 18.9 14.5 66.0- 3.7 1.7---- 1.6------------
1952-08-08 20.6 30.7 17.2 14.0 84.0- 4.7 0.7---- 7.9------------
1952-08-09 20.7 27.6 14.8 11.8 77.5- 0.7 1.0---- 0.0------------
1952-08-10 19.2 24.5 16.0 13.8 87.3- 5.3 4.3---- 1.0------------
1952-08-11 18.5 26.5 12.5 9.2 74.0- 1.3 2.7---- 0.0------------
1952-08-12 21.8 29.4 13.5 8.7 71.5- 1.0 2.0---- 0.0------------
1952-08-13 24.7 33.8 15.8 11.8 60.5- 0.0 1.0---- 0.0------------
1952-08-14 25.0 34.8 16.9 12.5 58.8- 0.0 1.0---- 0.0------------
88.7 ms

 

Źródłem pochodzenia danych jest Instytut Meteorologii i Gospodarki Wodnej – Państwowy Instytut Badawczy. Dane Instytutu Meteorologii i Gospodarki Wodnej – Państwowego Instytutu Badawczego zostały przetworzone.

Dane źródłowe można odnaleźć na stronie https://dane.imgw.pl